Time;durP1;ratioP1;P1;durP2;ratioP2;P2;SDS_P1;SDS_P2;PMS_P1;PMS_P2;Temp;Humidity;BMP_temperature;BMP_pressure;BME280_temperature;BME280_humidity;BME280_pressure;Samples;Min_cycle;Max_cycle;Signal;HPM_P1;HPM_P2
2023/08/03 00:01:59;;;;;;;11.60;6.60;;;;;;;28.31;100.00;99422.16;30875614;28;20078;-76
2023/08/03 00:17:01;;;;;;;10.50;6.37;;;;;;;27.89;100.00;99416.84;30880974;28;20142;-76
2023/08/03 00:32:04;;;;;;;10.23;6.93;;;;;;;27.72;100.00;99408.25;30878315;28;20066;-76
2023/08/03 00:47:06;;;;;;;12.68;7.00;;;;;;;27.61;100.00;99419.78;30875225;28;20070;-75
2023/08/03 01:02:08;;;;;;;8.77;6.80;;;;;;;27.40;100.00;99406.66;30879873;28;20082;-77
2023/08/03 01:17:11;;;;;;;11.53;7.70;;;;;;;27.38;100.00;99395.31;30877061;28;20077;-77
2023/08/03 01:32:13;;;;;;;;;;;;;;;27.45;100.00;99391.06;30869829;28;20142;-75
2023/08/03 01:47:15;;;;;;;12.82;8.55;;;;;;;27.19;100.00;99403.22;30870044;28;19977;-76
2023/08/03 02:02:17;;;;;;;9.93;7.30;;;;;;;26.97;100.00;99396.25;30872715;28;20074;-77
2023/08/03 02:17:20;;;;;;;13.47;8.37;;;;;;;26.95;100.00;99396.03;30870382;28;20505;-77
2023/08/03 02:32:24;;;;;;;15.18;8.27;;;;;;;27.23;100.00;99403.59;30869239;28;20138;-77
2023/08/03 02:47:27;;;;;;;12.77;7.72;;;;;;;26.97;100.00;99395.50;30868198;28;20101;-77
2023/08/03 03:02:29;;;;;;;11.27;7.45;;;;;;;26.98;100.00;99402.56;30858027;28;20055;-77
2023/08/03 03:17:31;;;;;;;14.80;8.30;;;;;;;26.91;100.00;99411.59;30866217;28;20082;-77
2023/08/03 03:32:33;;;;;;;11.40;7.83;;;;;;;27.15;100.00;99430.72;30859061;28;20059;-77
2023/08/03 03:47:35;;;;;;;9.20;6.90;;;;;;;27.19;100.00;99436.66;30860903;28;20054;-79
2023/08/03 04:02:37;;;;;;;13.23;6.97;;;;;;;27.58;100.00;99471.06;30861100;28;20138;-77
2023/08/03 04:17:39;;;;;;;11.03;8.10;;;;;;;27.78;100.00;99489.72;30865592;28;20105;-76
2023/08/03 04:32:41;;;;;;;12.80;8.23;;;;;;;28.68;100.00;99532.34;30879656;28;20413;-78
2023/08/03 04:47:43;;;;;;;12.47;8.33;;;;;;;29.40;100.00;99583.00;30875674;28;20117;-76
2023/08/03 05:02:45;;;;;;;11.43;8.57;;;;;;;30.01;100.00;99585.63;30876145;28;20351;-76
2023/08/03 05:17:49;;;;;;;16.80;9.93;;;;;;;30.79;100.00;99613.41;30876326;28;20069;-77
2023/08/03 05:32:53;;;;;;;10.70;8.88;;;;;;;31.24;100.00;99617.19;30870619;28;20437;-77
2023/08/03 05:47:55;;;;;;;14.32;8.98;;;;;;;31.93;95.63;99634.09;30870840;28;20390;-78
2023/08/03 06:02:58;;;;;;;8.38;7.15;;;;;;;32.79;84.97;99655.72;30868812;28;20051;-82
2023/08/03 06:18:07;;;;;;;10.50;7.00;;;;;;;33.13;81.62;99671.66;30863006;28;20051;-78
2023/08/03 06:33:12;;;;;;;12.70;8.73;;;;;;;33.54;80.19;99667.09;30863020;28;20051;-78
2023/08/03 06:48:15;;;;;;;11.30;6.88;;;;;;;33.93;77.71;99667.88;30864230;28;20137;-74
2023/08/03 07:03:17;;;;;;;11.18;10.05;;;;;;;34.41;74.30;99676.31;30864286;28;20074;-75
2023/08/03 07:18:19;;;;;;;7.70;6.90;;;;;;;34.77;72.32;99689.44;30862731;28;20054;-75
2023/08/03 07:33:22;;;;;;;7.65;6.00;;;;;;;35.28;70.76;99695.03;30856291;28;20077;-74
2023/08/03 07:48:24;;;;;;;9.25;5.28;;;;;;;35.69;67.27;99692.88;30860548;28;20051;-76
2023/08/03 08:03:26;;;;;;;7.72;4.63;;;;;;;36.21;64.17;99690.72;30875155;28;20559;-75
2023/08/03 08:18:28;;;;;;;5.25;4.43;;;;;;;36.32;65.49;99694.22;30876441;28;20050;-75
2023/08/03 08:33:31;;;;;;;6.20;4.30;;;;;;;37.33;61.26;99694.88;30876023;28;20059;-74
2023/08/03 08:48:34;;;;;;;8.80;4.60;;;;;;;37.99;55.13;99705.13;30871129;28;20775;-75
2023/08/03 09:03:55;;;;;;;7.18;3.42;;;;;;;38.19;51.72;99714.81;30874872;28;20054;-75
2023/08/03 09:19:00;;;;;;;4.85;3.83;;;;;;;38.41;51.33;99709.66;30874869;28;20055;-78
2023/08/03 09:34:02;;;;;;;3.65;2.83;;;;;;;38.40;50.95;99697.56;30870392;28;20061;-77
2023/08/03 09:49:05;;;;;;;5.85;3.88;;;;;;;38.09;51.36;99700.75;30873480;28;20481;-76
2023/08/03 10:04:15;;;;;;;4.43;3.08;;;;;;;39.95;47.96;99706.44;30869720;28;20485;-75
2023/08/03 10:19:19;;;;;;;6.75;4.30;;;;;;;39.80;47.66;99695.75;30867634;28;20050;-76
2023/08/03 10:34:25;;;;;;;4.25;2.88;;;;;;;40.55;43.32;99696.56;30866178;28;20113;-76
2023/08/03 10:49:27;;;;;;;4.03;2.87;;;;;;;41.47;42.13;99704.25;30861455;28;20532;-74
2023/08/03 11:04:30;;;;;;;6.43;3.05;;;;;;;42.25;39.60;99703.25;30856542;28;20078;-75
2023/08/03 11:19:37;;;;;;;6.07;3.20;;;;;;;41.01;40.11;99700.09;30860336;28;20050;-76
2023/08/03 11:34:40;;;;;;;4.05;3.65;;;;;;;39.36;42.13;99699.88;30874238;28;20057;-77
2023/08/03 11:49:42;;;;;;;6.90;3.50;;;;;;;38.29;43.91;99703.28;30877486;28;20054;-76
2023/08/03 12:04:52;;;;;;;4.50;3.38;;;;;;;37.02;46.27;99700.03;30877645;28;20051;-74
2023/08/03 12:19:55;;;;;;;4.88;3.60;;;;;;;36.62;45.64;99698.97;30876216;28;20173;-77
2023/08/03 12:34:57;;;;;;;6.88;5.22;;;;;;;36.49;45.90;99705.22;30875415;28;20059;-76
2023/08/03 12:49:59;;;;;;;4.60;3.30;;;;;;;36.39;46.19;99704.56;30878308;28;20093;-75
2023/08/03 13:05:01;;;;;;;3.60;2.83;;;;;;;36.25;45.86;99695.19;30871610;28;20087;-76
2023/08/03 13:20:05;;;;;;;3.53;2.55;;;;;;;35.98;45.95;99696.28;30869541;28;20134;-77
2023/08/03 13:35:08;;;;;;;3.88;3.03;;;;;;;35.69;46.44;99715.47;30867325;28;20047;-76
2023/08/03 13:50:10;;;;;;;5.72;3.13;;;;;;;35.67;46.23;99709.72;30867273;28;20082;-74
2023/08/03 14:05:15;;;;;;;6.55;4.50;;;;;;;35.39;46.92;99703.63;30868661;28;20118;-75
2023/08/03 14:20:37;;;;;;;4.70;3.22;;;;;;;34.94;47.75;99704.69;30864936;28;20450;-76
2023/08/03 14:35:50;;;;;;;6.18;4.28;;;;;;;34.80;47.65;99708.00;31777788;27;1692771;-75
2023/08/03 14:50:52;;;;;;;6.20;3.75;;;;;;;34.60;48.57;99715.00;31736798;28;20414;-76
2023/08/03 15:05:54;;;;;;;8.07;4.50;;;;;;;34.22;48.78;99730.59;31726448;28;20079;-77
2023/08/03 15:20:56;;;;;;;6.63;4.40;;;;;;;33.98;49.46;99730.88;31716275;28;20055;-77
2023/08/03 15:36:05;;;;;;;9.77;5.43;;;;;;;33.92;49.81;99739.59;31717124;28;20043;-75
2023/08/03 15:51:10;;;;;;;9.67;6.73;;;;;;;33.64;50.58;99757.88;31638980;28;20114;-74
2023/08/03 16:06:21;;;;;;;8.13;4.10;;;;;;;33.38;50.70;99767.13;31632755;28;20105;-75
2023/08/03 16:21:23;;;;;;;12.68;8.10;;;;;;;33.15;51.34;99785.06;31639366;28;20139;-76
2023/08/03 16:36:25;;;;;;;8.18;4.95;;;;;;;32.93;52.30;99790.97;31658480;28;20084;-75
2023/08/03 16:51:28;;;;;;;6.05;5.20;;;;;;;32.86;52.92;99796.13;31628831;28;20108;-77
2023/08/03 17:06:32;;;;;;;11.07;7.28;;;;;;;32.75;53.37;99819.13;31637319;28;20047;-77
2023/08/03 17:21:37;;;;;;;6.30;4.80;;;;;;;32.49;53.90;99816.97;31623504;28;20056;-76
2023/08/03 17:36:40;;;;;;;11.65;5.05;;;;;;;32.47;54.10;99836.47;31645455;28;20495;-79
2023/08/03 17:51:42;;;;;;;5.80;4.65;;;;;;;32.47;54.12;99842.09;31638753;28;20039;-77
2023/08/03 18:06:44;;;;;;;9.10;6.35;;;;;;;32.32;54.34;99848.59;31658480;28;20048;-75
2023/08/03 18:21:46;;;;;;;11.90;5.90;;;;;;;32.09;54.99;99860.03;31627071;28;20565;-76
2023/08/03 18:36:48;;;;;;;9.15;5.47;;;;;;;31.85;56.40;99860.78;31637748;28;20048;-74
2023/08/03 18:51:51;;;;;;;9.02;6.18;;;;;;;31.79;57.04;99879.91;31626507;28;20086;-76
2023/08/03 19:06:53;;;;;;;9.48;6.53;;;;;;;31.60;58.34;99894.41;31619401;28;20083;-74
2023/08/03 19:21:56;;;;;;;13.70;7.60;;;;;;;31.51;58.85;99897.81;31626979;28;20064;-75
2023/08/03 19:36:58;;;;;;;10.13;6.53;;;;;;;31.45;59.51;99895.22;31647049;28;20067;-75
2023/08/03 19:52:00;;;;;;;11.40;6.57;;;;;;;31.23;61.37;99910.09;31639948;28;20048;-74
2023/08/03 20:07:22;;;;;;;8.15;5.38;;;;;;;30.95;63.86;99907.56;31661965;28;20048;-74
2023/08/03 20:22:39;;;;;;;11.60;6.63;;;;;;;30.75;68.45;99921.25;31645172;28;20052;-75
2023/08/03 20:37:41;;;;;;;9.77;5.70;;;;;;;30.59;74.46;99919.78;31629571;28;20138;-75
2023/08/03 20:52:43;;;;;;;10.30;7.53;;;;;;;30.49;79.33;99938.44;31618278;28;20048;-76
2023/08/03 21:07:46;;;;;;;11.07;6.32;;;;;;;30.49;84.29;99932.84;31629959;28;20130;-74
2023/08/03 21:22:48;;;;;;;9.52;6.97;;;;;;;30.32;88.19;99930.63;31631141;28;20063;-75
2023/08/03 21:37:50;;;;;;;10.50;7.35;;;;;;;29.61;85.88;99948.38;31638948;28;20036;-75
2023/08/03 21:52:52;;;;;;;10.25;6.97;;;;;;;29.49;82.92;99942.41;31625711;28;20058;-78
2023/08/03 22:07:55;;;;;;;;;;;;;;;29.55;79.69;99951.34;31637240;28;20048;-76
2023/08/03 22:22:57;;;;;;;9.40;5.93;;;;;;;29.38;77.86;99965.81;31608661;28;20375;-77
2023/08/03 22:37:59;;;;;;;;;;;;;;;29.34;78.23;99967.44;31620422;28;20082;-75
2023/08/03 22:53:01;;;;;;;9.82;5.15;;;;;;;28.81;77.19;99976.31;31645030;28;20375;-75
2023/08/03 23:08:03;;;;;;;8.27;5.30;;;;;;;28.52;76.97;99975.50;31647404;28;20138;-76
2023/08/03 23:23:05;;;;;;;7.55;5.07;;;;;;;28.39;78.80;99981.88;31642147;28;20054;-75
2023/08/03 23:38:08;;;;;;;;;;;;;;;28.54;82.90;100003.63;31651245;28;20131;-76
2023/08/03 23:53:09;;;;;;;8.77;5.93;;;;;;;28.27;83.53;100002.25;31642546;28;20006;-76
